sensor_id;sensor_type;location;lat;lon;timestamp;pressure;altitude;pressure_sealevel;temperature;humidity
79118;BME280;68523;51.336;-0.846;2023-11-18T00:00:00;100915.0;;;7.33;100.4
79118;BME280;68523;51.336;-0.846;2023-11-18T00:03:00;100915.0;;;7.32;100.6
79118;BME280;68523;51.336;-0.846;2023-11-18T00:06:00;100905.0;;;7.35;100.7
79118;BME280;68523;51.336;-0.846;2023-11-18T00:09:00;100905.0;;;7.33;100.8
79118;BME280;68523;51.336;-0.846;2023-11-18T00:12:00;100885.0;;;7.33;100.8
79118;BME280;68523;51.336;-0.846;2023-11-18T00:15:01;100875.0;;;7.32;100.9
79118;BME280;68523;51.336;-0.846;2023-11-18T00:18:00;100875.0;;;7.30;101.0
79118;BME280;68523;51.336;-0.846;2023-11-18T00:21:00;100865.0;;;7.30;101.2
79118;BME280;68523;51.336;-0.846;2023-11-18T00:24:00;100865.0;;;7.32;101.3
79118;BME280;68523;51.336;-0.846;2023-11-18T00:27:00;100865.0;;;7.32;101.2
79118;BME280;68523;51.336;-0.846;2023-11-18T00:30:00;100865.0;;;7.38;101.2
79118;BME280;68523;51.336;-0.846;2023-11-18T00:33:00;100865.0;;;7.37;101.3
79118;BME280;68523;51.336;-0.846;2023-11-18T00:36:00;100855.0;;;7.38;101.4
79118;BME280;68523;51.336;-0.846;2023-11-18T00:39:00;100845.0;;;7.41;101.5
79118;BME280;68523;51.336;-0.846;2023-11-18T00:42:00;100835.0;;;7.42;101.5
79118;BME280;68523;51.336;-0.846;2023-11-18T00:45:00;100825.0;;;7.41;101.6
79118;BME280;68523;51.336;-0.846;2023-11-18T00:48:00;100825.0;;;7.43;101.7
79118;BME280;68523;51.336;-0.846;2023-11-18T00:51:00;100815.0;;;7.47;101.7
79118;BME280;68523;51.336;-0.846;2023-11-18T00:54:00;100825.0;;;7.51;101.7
79118;BME280;68523;51.336;-0.846;2023-11-18T00:57:00;100805.0;;;7.56;101.9
79118;BME280;68523;51.336;-0.846;2023-11-18T01:00:00;100795.0;;;7.60;102.0
79118;BME280;68523;51.336;-0.846;2023-11-18T01:03:00;100775.0;;;7.60;102.0
79118;BME280;68523;51.336;-0.846;2023-11-18T01:06:00;100775.0;;;7.63;102.1
79118;BME280;68523;51.336;-0.846;2023-11-18T01:09:00;100775.0;;;7.66;102.1
79118;BME280;68523;51.336;-0.846;2023-11-18T01:12:00;100755.0;;;7.66;102.2
79118;BME280;68523;51.336;-0.846;2023-11-18T01:15:00;100755.0;;;7.66;102.2
79118;BME280;68523;51.336;-0.846;2023-11-18T01:18:00;100755.0;;;7.66;102.2
79118;BME280;68523;51.336;-0.846;2023-11-18T01:21:00;100735.0;;;7.67;102.3
79118;BME280;68523;51.336;-0.846;2023-11-18T01:24:00;100735.0;;;7.70;102.3
79118;BME280;68523;51.336;-0.846;2023-11-18T01:27:01;100735.0;;;7.67;102.3
79118;BME280;68523;51.336;-0.846;2023-11-18T01:30:00;100725.0;;;7.71;102.3
79118;BME280;68523;51.336;-0.846;2023-11-18T01:33:00;100715.0;;;7.74;102.4
79118;BME280;68523;51.336;-0.846;2023-11-18T01:36:00;100715.0;;;7.78;102.4
79118;BME280;68523;51.336;-0.846;2023-11-18T01:39:00;100715.0;;;7.76;102.4
79118;BME280;68523;51.336;-0.846;2023-11-18T01:42:00;100715.0;;;7.79;102.5
79118;BME280;68523;51.336;-0.846;2023-11-18T01:45:00;100715.0;;;7.78;102.4
79118;BME280;68523;51.336;-0.846;2023-11-18T01:48:00;100705.0;;;7.81;102.5
79118;BME280;68523;51.336;-0.846;2023-11-18T01:51:01;100695.0;;;7.82;102.5
79118;BME280;68523;51.336;-0.846;2023-11-18T01:54:00;100705.0;;;7.88;102.5
79118;BME280;68523;51.336;-0.846;2023-11-18T01:57:00;100695.0;;;7.95;102.5
79118;BME280;68523;51.336;-0.846;2023-11-18T02:00:01;100695.0;;;7.96;102.5
79118;BME280;68523;51.336;-0.846;2023-11-18T02:03:00;100695.0;;;8.03;102.5
79118;BME280;68523;51.336;-0.846;2023-11-18T02:06:01;100685.0;;;8.21;102.6
79118;BME280;68523;51.336;-0.846;2023-11-18T02:09:00;100675.0;;;8.26;102.6
79118;BME280;68523;51.336;-0.846;2023-11-18T02:12:08;100655.0;;;8.35;102.6
79118;BME280;68523;51.336;-0.846;2023-11-18T02:15:03;100635.0;;;8.57;102.6
79118;BME280;68523;51.336;-0.846;2023-11-18T02:18:02;100625.0;;;8.65;102.6
79118;BME280;68523;51.336;-0.846;2023-11-18T02:21:00;100625.0;;;8.71;102.6
79118;BME280;68523;51.336;-0.846;2023-11-18T02:24:00;100625.0;;;8.87;102.5
79118;BME280;68523;51.336;-0.846;2023-11-18T02:27:00;100625.0;;;8.87;102.5
79118;BME280;68523;51.336;-0.846;2023-11-18T02:30:00;100595.0;;;8.93;102.5
79118;BME280;68523;51.336;-0.846;2023-11-18T02:33:04;100585.0;;;9.04;102.5
79118;BME280;68523;51.336;-0.846;2023-11-18T02:36:05;100585.0;;;9.12;102.4
79118;BME280;68523;51.336;-0.846;2023-11-18T02:39:01;100585.0;;;9.18;102.4
79118;BME280;68523;51.336;-0.846;2023-11-18T02:42:02;100575.0;;;9.18;102.3
79118;BME280;68523;51.336;-0.846;2023-11-18T02:45:01;100575.0;;;9.24;102.2
79118;BME280;68523;51.336;-0.846;2023-11-18T02:48:00;100575.0;;;9.30;102.1
79118;BME280;68523;51.336;-0.846;2023-11-18T02:51:00;100575.0;;;9.37;102.1
79118;BME280;68523;51.336;-0.846;2023-11-18T02:54:00;100565.0;;;9.32;102.2
79118;BME280;68523;51.336;-0.846;2023-11-18T02:57:00;100555.0;;;9.34;102.3
79118;BME280;68523;51.336;-0.846;2023-11-18T03:00:00;100545.0;;;9.34;102.4
79118;BME280;68523;51.336;-0.846;2023-11-18T03:03:00;100535.0;;;9.35;102.3
79118;BME280;68523;51.336;-0.846;2023-11-18T03:06:00;100535.0;;;9.34;102.3
79118;BME280;68523;51.336;-0.846;2023-11-18T03:09:00;100535.0;;;9.34;102.3
79118;BME280;68523;51.336;-0.846;2023-11-18T03:12:00;100535.0;;;9.36;102.2
79118;BME280;68523;51.336;-0.846;2023-11-18T03:15:00;100535.0;;;9.40;102.2
79118;BME280;68523;51.336;-0.846;2023-11-18T03:18:00;100525.0;;;9.38;102.2
79118;BME280;68523;51.336;-0.846;2023-11-18T03:21:00;100505.0;;;9.37;102.2
79118;BME280;68523;51.336;-0.846;2023-11-18T03:24:00;100495.0;;;9.41;102.2
79118;BME280;68523;51.336;-0.846;2023-11-18T03:27:00;100495.0;;;9.41;102.1
79118;BME280;68523;51.336;-0.846;2023-11-18T03:30:00;100495.0;;;9.40;102.2
79118;BME280;68523;51.336;-0.846;2023-11-18T03:33:00;100495.0;;;9.43;102.2
79118;BME280;68523;51.336;-0.846;2023-11-18T03:36:00;100485.0;;;9.44;102.2
79118;BME280;68523;51.336;-0.846;2023-11-18T03:39:00;100485.0;;;9.47;102.3
79118;BME280;68523;51.336;-0.846;2023-11-18T03:42:00;100475.0;;;9.46;102.3
79118;BME280;68523;51.336;-0.846;2023-11-18T03:45:00;100475.0;;;9.51;102.3
79118;BME280;68523;51.336;-0.846;2023-11-18T03:48:00;100465.0;;;9.50;102.4
79118;BME280;68523;51.336;-0.846;2023-11-18T03:51:01;100455.0;;;9.54;102.4
79118;BME280;68523;51.336;-0.846;2023-11-18T03:54:00;100445.0;;;9.59;102.3
79118;BME280;68523;51.336;-0.846;2023-11-18T03:57:00;100455.0;;;9.60;102.3
79118;BME280;68523;51.336;-0.846;2023-11-18T04:00:00;100455.0;;;9.66;102.2
79118;BME280;68523;51.336;-0.846;2023-11-18T04:03:00;100445.0;;;9.66;102.3
79118;BME280;68523;51.336;-0.846;2023-11-18T04:06:00;100435.0;;;9.68;102.3
79118;BME280;68523;51.336;-0.846;2023-11-18T04:09:00;100425.0;;;9.72;102.3
79118;BME280;68523;51.336;-0.846;2023-11-18T04:12:00;100415.0;;;9.78;102.3
79118;BME280;68523;51.336;-0.846;2023-11-18T04:15:00;100405.0;;;9.79;102.3
79118;BME280;68523;51.336;-0.846;2023-11-18T04:18:01;100385.0;;;9.83;102.2
79118;BME280;68523;51.336;-0.846;2023-11-18T04:21:00;100365.0;;;9.88;102.2
79118;BME280;68523;51.336;-0.846;2023-11-18T04:24:00;100375.0;;;9.93;102.1
79118;BME280;68523;51.336;-0.846;2023-11-18T04:27:00;100365.0;;;10.00;101.9
79118;BME280;68523;51.336;-0.846;2023-11-18T04:30:00;100375.0;;;10.02;101.8
79118;BME280;68523;51.336;-0.846;2023-11-18T04:33:00;100355.0;;;10.05;101.8
79118;BME280;68523;51.336;-0.846;2023-11-18T04:36:00;100355.0;;;10.05;101.9
79118;BME280;68523;51.336;-0.846;2023-11-18T04:39:00;100355.0;;;10.09;101.8
79118;BME280;68523;51.336;-0.846;2023-11-18T04:42:00;100345.0;;;10.07;101.9
79118;BME280;68523;51.336;-0.846;2023-11-18T04:45:00;100325.0;;;10.12;101.9
79118;BME280;68523;51.336;-0.846;2023-11-18T04:48:00;100325.0;;;10.16;101.8
79118;BME280;68523;51.336;-0.846;2023-11-18T04:51:00;100325.0;;;10.16;101.8
79118;BME280;68523;51.336;-0.846;2023-11-18T04:54:00;100335.0;;;10.19;101.7
79118;BME280;68523;51.336;-0.846;2023-11-18T04:57:01;100335.0;;;10.21;101.7
79118;BME280;68523;51.336;-0.846;2023-11-18T05:00:01;100315.0;;;10.25;101.6
79118;BME280;68523;51.336;-0.846;2023-11-18T05:03:00;100315.0;;;10.27;101.8
79118;BME280;68523;51.336;-0.846;2023-11-18T05:06:00;100305.0;;;10.29;101.7
79118;BME280;68523;51.336;-0.846;2023-11-18T05:09:00;100305.0;;;10.32;101.7
79118;BME280;68523;51.336;-0.846;2023-11-18T05:12:00;100305.0;;;10.32;101.7
79118;BME280;68523;51.336;-0.846;2023-11-18T05:15:00;100285.0;;;10.32;101.7
79118;BME280;68523;51.336;-0.846;2023-11-18T05:18:00;100275.0;;;10.34;101.9
79118;BME280;68523;51.336;-0.846;2023-11-18T05:21:01;100255.0;;;10.34;101.9
79118;BME280;68523;51.336;-0.846;2023-11-18T05:24:00;100265.0;;;10.36;102.0
79118;BME280;68523;51.336;-0.846;2023-11-18T05:27:00;100245.0;;;10.37;102.1
79118;BME280;68523;51.336;-0.846;2023-11-18T05:30:00;100245.0;;;10.37;102.0
79118;BME280;68523;51.336;-0.846;2023-11-18T05:33:02;100235.0;;;10.42;101.9
79118;BME280;68523;51.336;-0.846;2023-11-18T05:36:00;100225.0;;;10.42;102.0
79118;BME280;68523;51.336;-0.846;2023-11-18T05:39:00;100215.0;;;10.39;101.9
79118;BME280;68523;51.336;-0.846;2023-11-18T05:42:00;100225.0;;;10.46;101.9
79118;BME280;68523;51.336;-0.846;2023-11-18T05:45:00;100225.0;;;10.46;101.9
79118;BME280;68523;51.336;-0.846;2023-11-18T05:48:00;100215.0;;;10.49;101.9
79118;BME280;68523;51.336;-0.846;2023-11-18T05:51:00;100205.0;;;10.48;101.9
79118;BME280;68523;51.336;-0.846;2023-11-18T05:54:00;100215.0;;;10.49;102.0
79118;BME280;68523;51.336;-0.846;2023-11-18T05:57:00;100215.0;;;10.54;102.0
79118;BME280;68523;51.336;-0.846;2023-11-18T06:00:00;100215.0;;;10.56;101.9
79118;BME280;68523;51.336;-0.846;2023-11-18T06:03:00;100195.0;;;10.58;101.9
79118;BME280;68523;51.336;-0.846;2023-11-18T06:06:00;100185.0;;;10.59;101.9
79118;BME280;68523;51.336;-0.846;2023-11-18T06:09:00;100195.0;;;10.59;102.0
79118;BME280;68523;51.336;-0.846;2023-11-18T06:12:00;100185.0;;;10.65;102.0
79118;BME280;68523;51.336;-0.846;2023-11-18T06:15:00;100175.0;;;10.64;102.1
79118;BME280;68523;51.336;-0.846;2023-11-18T06:18:00;100175.0;;;10.66;102.2
79118;BME280;68523;51.336;-0.846;2023-11-18T06:21:00;100175.0;;;10.67;102.3
79118;BME280;68523;51.336;-0.846;2023-11-18T06:24:01;100165.0;;;10.67;102.4
79118;BME280;68523;51.336;-0.846;2023-11-18T06:27:00;100155.0;;;10.75;102.4
79118;BME280;68523;51.336;-0.846;2023-11-18T06:30:00;100165.0;;;10.73;102.4
79118;BME280;68523;51.336;-0.846;2023-11-18T06:33:00;100155.0;;;10.78;102.6
79118;BME280;68523;51.336;-0.846;2023-11-18T06:36:00;100145.0;;;10.82;102.6
79118;BME280;68523;51.336;-0.846;2023-11-18T06:39:00;100135.0;;;10.85;102.6
79118;BME280;68523;51.336;-0.846;2023-11-18T06:42:00;100125.0;;;10.90;102.7
79118;BME280;68523;51.336;-0.846;2023-11-18T06:45:00;100115.0;;;10.89;102.7
79118;BME280;68523;51.336;-0.846;2023-11-18T06:48:00;100115.0;;;10.88;102.7
79118;BME280;68523;51.336;-0.846;2023-11-18T06:51:00;100125.0;;;10.96;102.7
79118;BME280;68523;51.336;-0.846;2023-11-18T06:54:01;100115.0;;;10.96;102.7
79118;BME280;68523;51.336;-0.846;2023-11-18T06:57:00;100105.0;;;11.02;102.7
79118;BME280;68523;51.336;-0.846;2023-11-18T07:00:00;100095.0;;;11.05;102.7
79118;BME280;68523;51.336;-0.846;2023-11-18T07:03:00;100095.0;;;11.11;102.7
79118;BME280;68523;51.336;-0.846;2023-11-18T07:06:00;100075.0;;;11.15;102.7
79118;BME280;68523;51.336;-0.846;2023-11-18T07:09:00;100085.0;;;11.24;102.7
79118;BME280;68523;51.336;-0.846;2023-11-18T07:12:00;100075.0;;;11.22;102.8
79118;BME280;68523;51.336;-0.846;2023-11-18T07:15:00;100075.0;;;11.28;102.8
79118;BME280;68523;51.336;-0.846;2023-11-18T07:18:00;100075.0;;;11.31;102.8
79118;BME280;68523;51.336;-0.846;2023-11-18T07:21:00;100075.0;;;11.37;102.8
79118;BME280;68523;51.336;-0.846;2023-11-18T07:24:00;100065.0;;;11.43;102.8
79118;BME280;68523;51.336;-0.846;2023-11-18T07:27:00;100065.0;;;11.41;102.8
79118;BME280;68523;51.336;-0.846;2023-11-18T07:30:00;100055.0;;;11.49;102.9
79118;BME280;68523;51.336;-0.846;2023-11-18T07:33:00;100045.0;;;11.49;102.9
79118;BME280;68523;51.336;-0.846;2023-11-18T07:36:00;100045.0;;;11.57;103.0
79118;BME280;68523;51.336;-0.846;2023-11-18T07:39:00;100055.0;;;11.63;103.1
79118;BME280;68523;51.336;-0.846;2023-11-18T07:42:00;100055.0;;;11.69;103.1
79118;BME280;68523;51.336;-0.846;2023-11-18T07:45:00;100055.0;;;11.74;103.1
79118;BME280;68523;51.336;-0.846;2023-11-18T07:48:00;100055.0;;;11.75;103.1
79118;BME280;68523;51.336;-0.846;2023-11-18T07:51:00;100055.0;;;11.82;103.1
79118;BME280;68523;51.336;-0.846;2023-11-18T07:54:00;100045.0;;;11.89;103.1
79118;BME280;68523;51.336;-0.846;2023-11-18T07:57:00;100035.0;;;11.89;103.1
79118;BME280;68523;51.336;-0.846;2023-11-18T08:00:00;100035.0;;;11.94;103.0
79118;BME280;68523;51.336;-0.846;2023-11-18T08:03:00;100035.0;;;11.96;103.1
79118;BME280;68523;51.336;-0.846;2023-11-18T08:06:00;100035.0;;;12.02;103.1
79118;BME280;68523;51.336;-0.846;2023-11-18T08:09:00;100035.0;;;12.10;103.0
79118;BME280;68523;51.336;-0.846;2023-11-18T08:12:00;100045.0;;;12.12;103.0
79118;BME280;68523;51.336;-0.846;2023-11-18T08:15:00;100025.0;;;12.18;103.1
79118;BME280;68523;51.336;-0.846;2023-11-18T08:18:00;100025.0;;;12.25;103.1
79118;BME280;68523;51.336;-0.846;2023-11-18T08:21:00;100035.0;;;12.24;103.1
79118;BME280;68523;51.336;-0.846;2023-11-18T08:24:00;100035.0;;;12.34;103.2
79118;BME280;68523;51.336;-0.846;2023-11-18T08:27:00;100035.0;;;12.39;103.2
79118;BME280;68523;51.336;-0.846;2023-11-18T08:30:00;100025.0;;;12.41;103.2
79118;BME280;68523;51.336;-0.846;2023-11-18T08:33:00;100015.0;;;12.53;103.2
79118;BME280;68523;51.336;-0.846;2023-11-18T08:36:00;100015.0;;;12.58;103.1
79118;BME280;68523;51.336;-0.846;2023-11-18T08:39:00;100025.0;;;12.70;103.1
79118;BME280;68523;51.336;-0.846;2023-11-18T08:42:00;100025.0;;;12.72;103.1
79118;BME280;68523;51.336;-0.846;2023-11-18T08:45:00;100025.0;;;12.72;103.2
79118;BME280;68523;51.336;-0.846;2023-11-18T08:48:02;100015.0;;;12.88;103.2
79118;BME280;68523;51.336;-0.846;2023-11-18T08:51:00;100015.0;;;12.97;103.1
79118;BME280;68523;51.336;-0.846;2023-11-18T08:54:00;100015.0;;;13.04;103.1
79118;BME280;68523;51.336;-0.846;2023-11-18T08:57:00;100025.0;;;13.10;103.0
79118;BME280;68523;51.336;-0.846;2023-11-18T09:00:00;100015.0;;;13.15;102.9
79118;BME280;68523;51.336;-0.846;2023-11-18T09:03:01;100005.0;;;13.25;103.0
79118;BME280;68523;51.336;-0.846;2023-11-18T09:06:02;100005.0;;;13.31;102.8
79118;BME280;68523;51.336;-0.846;2023-11-18T09:09:00;100015.0;;;13.35;102.6
79118;BME280;68523;51.336;-0.846;2023-11-18T09:12:00;100005.0;;;13.46;102.5
79118;BME280;68523;51.336;-0.846;2023-11-18T09:15:00;99975.0;;;13.57;102.4
79118;BME280;68523;51.336;-0.846;2023-11-18T09:18:00;99975.0;;;13.58;102.4
79118;BME280;68523;51.336;-0.846;2023-11-18T09:21:01;99955.0;;;13.64;102.3
79118;BME280;68523;51.336;-0.846;2023-11-18T09:24:00;99965.0;;;13.61;102.3
79118;BME280;68523;51.336;-0.846;2023-11-18T09:27:00;99985.0;;;13.65;102.3
79118;BME280;68523;51.336;-0.846;2023-11-18T09:30:00;99985.0;;;13.71;102.3
79118;BME280;68523;51.336;-0.846;2023-11-18T09:33:00;99965.0;;;13.70;102.3
79118;BME280;68523;51.336;-0.846;2023-11-18T09:36:01;99965.0;;;13.72;102.3
79118;BME280;68523;51.336;-0.846;2023-11-18T09:39:00;99955.0;;;13.78;102.1
79118;BME280;68523;51.336;-0.846;2023-11-18T09:42:00;99965.0;;;13.84;101.9
79118;BME280;68523;51.336;-0.846;2023-11-18T09:45:00;99965.0;;;13.82;102.0
79118;BME280;68523;51.336;-0.846;2023-11-18T09:48:01;99955.0;;;13.83;101.9
79118;BME280;68523;51.336;-0.846;2023-11-18T09:51:01;99955.0;;;13.86;101.9
79118;BME280;68523;51.336;-0.846;2023-11-18T09:54:04;99945.0;;;13.86;101.8
79118;BME280;68523;51.336;-0.846;2023-11-18T09:57:04;99955.0;;;13.93;101.7
79118;BME280;68523;51.336;-0.846;2023-11-18T10:00:02;99985.0;;;13.92;101.6
79118;BME280;68523;51.336;-0.846;2023-11-18T10:03:00;99985.0;;;13.96;101.5
79118;BME280;68523;51.336;-0.846;2023-11-18T10:06:02;99985.0;;;13.99;101.4
79118;BME280;68523;51.336;-0.846;2023-11-18T10:09:02;99995.0;;;14.03;101.5
79118;BME280;68523;51.336;-0.846;2023-11-18T10:12:00;100005.0;;;13.98;101.7
79118;BME280;68523;51.336;-0.846;2023-11-18T10:15:00;100005.0;;;13.94;101.8
79118;BME280;68523;51.336;-0.846;2023-11-18T10:18:02;99985.0;;;13.96;101.9
79118;BME280;68523;51.336;-0.846;2023-11-18T10:21:00;99975.0;;;13.95;102.0
79118;BME280;68523;51.336;-0.846;2023-11-18T10:24:00;99985.0;;;13.92;102.2
79118;BME280;68523;51.336;-0.846;2023-11-18T10:27:00;99995.0;;;13.94;102.2
79118;BME280;68523;51.336;-0.846;2023-11-18T10:30:02;99985.0;;;13.93;102.2
79118;BME280;68523;51.336;-0.846;2023-11-18T10:33:00;99985.0;;;13.95;102.2
79118;BME280;68523;51.336;-0.846;2023-11-18T10:36:00;99975.0;;;13.96;102.3
79118;BME280;68523;51.336;-0.846;2023-11-18T10:39:01;99985.0;;;13.93;102.3
79118;BME280;68523;51.336;-0.846;2023-11-18T10:42:01;99985.0;;;13.97;102.3
79118;BME280;68523;51.336;-0.846;2023-11-18T10:45:00;99985.0;;;13.98;102.3
79118;BME280;68523;51.336;-0.846;2023-11-18T10:48:00;99995.0;;;13.97;102.4
79118;BME280;68523;51.336;-0.846;2023-11-18T10:51:00;99995.0;;;13.99;102.2
79118;BME280;68523;51.336;-0.846;2023-11-18T10:54:00;99965.0;;;14.01;102.2
79118;BME280;68523;51.336;-0.846;2023-11-18T10:57:01;99955.0;;;14.03;102.3
79118;BME280;68523;51.336;-0.846;2023-11-18T11:00:01;99965.0;;;14.07;102.3
79118;BME280;68523;51.336;-0.846;2023-11-18T11:03:02;99965.0;;;14.08;102.2
79118;BME280;68523;51.336;-0.846;2023-11-18T11:06:00;99965.0;;;14.16;102.0
79118;BME280;68523;51.336;-0.846;2023-11-18T11:09:00;99965.0;;;14.18;101.8
79118;BME280;68523;51.336;-0.846;2023-11-18T11:12:04;99965.0;;;14.18;101.7
79118;BME280;68523;51.336;-0.846;2023-11-18T11:15:07;99965.0;;;14.18;101.6
79118;BME280;68523;51.336;-0.846;2023-11-18T11:18:04;99955.0;;;14.21;101.6
79118;BME280;68523;51.336;-0.846;2023-11-18T11:21:07;99955.0;;;14.21;101.7
79118;BME280;68523;51.336;-0.846;2023-11-18T11:24:04;99965.0;;;14.23;101.6
79118;BME280;68523;51.336;-0.846;2023-11-18T11:27:05;99955.0;;;14.23;101.6
79118;BME280;68523;51.336;-0.846;2023-11-18T11:30:03;99965.0;;;14.22;101.7
79118;BME280;68523;51.336;-0.846;2023-11-18T11:33:05;99975.0;;;14.25;101.5
79118;BME280;68523;51.336;-0.846;2023-11-18T11:36:02;99965.0;;;14.23;101.5
79118;BME280;68523;51.336;-0.846;2023-11-18T11:39:00;99955.0;;;14.22;101.3
79118;BME280;68523;51.336;-0.846;2023-11-18T11:42:01;99965.0;;;14.24;101.4
79118;BME280;68523;51.336;-0.846;2023-11-18T11:45:01;99975.0;;;14.22;101.3
79118;BME280;68523;51.336;-0.846;2023-11-18T11:48:01;99965.0;;;14.21;101.2
79118;BME280;68523;51.336;-0.846;2023-11-18T11:51:07;99965.0;;;14.21;101.4
79118;BME280;68523;51.336;-0.846;2023-11-18T11:54:04;99975.0;;;14.25;101.3
79118;BME280;68523;51.336;-0.846;2023-11-18T11:57:00;99965.0;;;14.26;101.3
79118;BME280;68523;51.336;-0.846;2023-11-18T12:00:03;99955.0;;;14.26;101.2
79118;BME280;68523;51.336;-0.846;2023-11-18T12:03:01;99955.0;;;14.32;101.0
79118;BME280;68523;51.336;-0.846;2023-11-18T12:06:00;99955.0;;;14.33;101.0
79118;BME280;68523;51.336;-0.846;2023-11-18T12:09:01;99955.0;;;14.36;100.7
79118;BME280;68523;51.336;-0.846;2023-11-18T12:12:00;99955.0;;;14.36;100.6
79118;BME280;68523;51.336;-0.846;2023-11-18T12:15:00;99955.0;;;14.37;100.7
79118;BME280;68523;51.336;-0.846;2023-11-18T12:18:10;99955.0;;;14.36;100.4
79118;BME280;68523;51.336;-0.846;2023-11-18T12:21:00;99965.0;;;14.40;100.2
79118;BME280;68523;51.336;-0.846;2023-11-18T12:24:17;99965.0;;;14.40;100.2
79118;BME280;68523;51.336;-0.846;2023-11-18T12:27:00;99955.0;;;14.45;100.0
79118;BME280;68523;51.336;-0.846;2023-11-18T12:30:00;99905.0;;;14.49;99.8
79118;BME280;68523;51.336;-0.846;2023-11-18T12:33:01;99905.0;;;14.51;99.7
79118;BME280;68523;51.336;-0.846;2023-11-18T12:54:01;99945.0;;;14.68;98.4
79118;BME280;68523;51.336;-0.846;2023-11-18T12:57:00;99935.0;;;14.65;98.3
79118;BME280;68523;51.336;-0.846;2023-11-18T13:00:00;99915.0;;;14.64;98.5
79118;BME280;68523;51.336;-0.846;2023-11-18T13:03:00;99915.0;;;14.66;97.7
79118;BME280;68523;51.336;-0.846;2023-11-18T13:06:00;99925.0;;;14.69;97.8
79118;BME280;68523;51.336;-0.846;2023-11-18T13:09:00;99935.0;;;14.69;98.0
79118;BME280;68523;51.336;-0.846;2023-11-18T13:12:01;99925.0;;;14.67;97.8
79118;BME280;68523;51.336;-0.846;2023-11-18T13:15:00;99915.0;;;14.66;97.6
79118;BME280;68523;51.336;-0.846;2023-11-18T13:18:02;99925.0;;;14.64;97.3
79118;BME280;68523;51.336;-0.846;2023-11-18T13:21:00;99925.0;;;14.66;97.4
79118;BME280;68523;51.336;-0.846;2023-11-18T13:24:00;99925.0;;;14.63;97.3
79118;BME280;68523;51.336;-0.846;2023-11-18T13:27:01;99935.0;;;14.60;97.6
79118;BME280;68523;51.336;-0.846;2023-11-18T13:30:00;99945.0;;;14.62;96.9
79118;BME280;68523;51.336;-0.846;2023-11-18T13:33:00;99955.0;;;14.60;97.3
79118;BME280;68523;51.336;-0.846;2023-11-18T13:36:00;99945.0;;;14.65;96.3
79118;BME280;68523;51.336;-0.846;2023-11-18T13:39:00;99935.0;;;14.60;96.8
79118;BME280;68523;51.336;-0.846;2023-11-18T13:42:18;99915.0;;;14.58;97.0
79118;BME280;68523;51.336;-0.846;2023-11-18T13:45:04;99895.0;;;unavailable;unavailable
79118;BME280;68523;51.336;-0.846;2023-11-18T13:48:00;99875.0;;;unavailable;unavailable
79118;BME280;68523;51.336;-0.846;2023-11-18T13:51:00;99875.0;;;unavailable;unavailable
79118;BME280;68523;51.336;-0.846;2023-11-18T13:54:00;99885.0;;;unavailable;unavailable
79118;BME280;68523;51.336;-0.846;2023-11-18T13:57:00;99905.0;;;14.49;96.3
79118;BME280;68523;51.336;-0.846;2023-11-18T14:00:00;99905.0;;;14.52;96.2
79118;BME280;68523;51.336;-0.846;2023-11-18T14:03:00;99915.0;;;14.51;96.1
79118;BME280;68523;51.336;-0.846;2023-11-18T14:06:00;99915.0;;;14.58;96.0
79118;BME280;68523;51.336;-0.846;2023-11-18T14:09:00;99895.0;;;14.58;96.1
79118;BME280;68523;51.336;-0.846;2023-11-18T14:12:00;99885.0;;;14.55;96.0
79118;BME280;68523;51.336;-0.846;2023-11-18T14:15:00;99895.0;;;14.51;96.3
79118;BME280;68523;51.336;-0.846;2023-11-18T14:18:00;99895.0;;;14.54;96.0
79118;BME280;68523;51.336;-0.846;2023-11-18T14:21:00;99885.0;;;14.52;96.0
79118;BME280;68523;51.336;-0.846;2023-11-18T14:24:00;99875.0;;;14.55;95.9
79118;BME280;68523;51.336;-0.846;2023-11-18T14:27:00;99885.0;;;14.50;96.2
79118;BME280;68523;51.336;-0.846;2023-11-18T14:30:00;99885.0;;;14.48;95.8
79118;BME280;68523;51.336;-0.846;2023-11-18T14:33:00;99895.0;;;14.43;96.3
79118;BME280;68523;51.336;-0.846;2023-11-18T14:36:00;99895.0;;;14.44;96.0
79118;BME280;68523;51.336;-0.846;2023-11-18T14:39:00;99905.0;;;14.45;95.5
79118;BME280;68523;51.336;-0.846;2023-11-18T14:42:00;99895.0;;;14.40;95.8
79118;BME280;68523;51.336;-0.846;2023-11-18T14:45:00;99885.0;;;14.38;95.7
79118;BME280;68523;51.336;-0.846;2023-11-18T14:48:00;99885.0;;;14.31;96.0
79118;BME280;68523;51.336;-0.846;2023-11-18T14:51:00;99875.0;;;14.32;95.9
79118;BME280;68523;51.336;-0.846;2023-11-18T14:54:00;99885.0;;;14.26;96.2
79118;BME280;68523;51.336;-0.846;2023-11-18T14:57:00;99865.0;;;14.26;96.0
79118;BME280;68523;51.336;-0.846;2023-11-18T15:00:00;99855.0;;;14.19;96.3
79118;BME280;68523;51.336;-0.846;2023-11-18T15:03:00;99865.0;;;14.17;96.3
79118;BME280;68523;51.336;-0.846;2023-11-18T15:06:00;99855.0;;;14.20;96.3
79118;BME280;68523;51.336;-0.846;2023-11-18T15:09:00;99855.0;;;14.10;96.6
79118;BME280;68523;51.336;-0.846;2023-11-18T15:12:00;99845.0;;;14.11;96.5
79118;BME280;68523;51.336;-0.846;2023-11-18T15:15:00;99845.0;;;14.09;96.5
79118;BME280;68523;51.336;-0.846;2023-11-18T15:18:01;99855.0;;;14.08;96.6
79118;BME280;68523;51.336;-0.846;2023-11-18T15:21:00;99855.0;;;14.05;96.7
79118;BME280;68523;51.336;-0.846;2023-11-18T15:24:00;99865.0;;;14.05;96.5
79118;BME280;68523;51.336;-0.846;2023-11-18T15:27:00;99865.0;;;14.04;96.6
79118;BME280;68523;51.336;-0.846;2023-11-18T15:30:00;99875.0;;;13.97;96.8
79118;BME280;68523;51.336;-0.846;2023-11-18T15:33:00;99865.0;;;13.97;96.6
79118;BME280;68523;51.336;-0.846;2023-11-18T15:36:00;99865.0;;;13.97;96.8
79118;BME280;68523;51.336;-0.846;2023-11-18T15:39:00;99875.0;;;13.96;96.4
79118;BME280;68523;51.336;-0.846;2023-11-18T15:42:00;99875.0;;;13.93;96.6
79118;BME280;68523;51.336;-0.846;2023-11-18T15:45:00;99865.0;;;13.92;96.7
79118;BME280;68523;51.336;-0.846;2023-11-18T15:48:00;99875.0;;;13.89;96.9
79118;BME280;68523;51.336;-0.846;2023-11-18T15:51:00;99875.0;;;13.89;96.8
79118;BME280;68523;51.336;-0.846;2023-11-18T15:54:00;99885.0;;;13.92;96.7
79118;BME280;68523;51.336;-0.846;2023-11-18T15:57:00;99885.0;;;13.90;96.9
79118;BME280;68523;51.336;-0.846;2023-11-18T16:00:00;99875.0;;;13.84;97.1
79118;BME280;68523;51.336;-0.846;2023-11-18T16:03:00;99865.0;;;13.84;97.2
79118;BME280;68523;51.336;-0.846;2023-11-18T16:06:00;99855.0;;;13.87;97.2